Time;durP1;ratioP1;P1;durP2;ratioP2;P2;SDS_P1;SDS_P2;PMS_P1;PMS_P2;Temp;Humidity;BMP_temperature;BMP_pressure;BME280_temperature;BME280_humidity;BME280_pressure;Samples;Min_cycle;Max_cycle;Signal;HPM_P1;HPM_P2
2021/09/16 00:01:51;;;;;;;17.27;12.40;;;;;;;;;;5073764;28;20495;-65
2021/09/16 00:04:19;;;;;;;16.43;12.40;;;;;;;;;;5073932;28;20857;-63
2021/09/16 00:06:47;;;;;;;14.97;10.87;;;;;;;;;;5074703;28;20863;-65
2021/09/16 00:09:14;;;;;;;15.20;12.00;;;;;;;;;;5074338;28;20500;-66
2021/09/16 00:11:41;;;;;;;12.00;10.57;;;;;;;;;;5074551;28;20470;-67
2021/09/16 00:14:08;;;;;;;13.40;11.40;;;;;;;;;;5073871;28;20531;-66
2021/09/16 00:16:36;;;;;;;13.73;11.93;;;;;;;;;;5074423;28;20447;-66
2021/09/16 00:19:03;;;;;;;16.03;12.87;;;;;;;;;;5073861;28;20494;-66
2021/09/16 00:21:31;;;;;;;14.10;11.10;;;;;;;;;;5076269;28;20471;-66
2021/09/16 00:23:59;;;;;;;12.37;11.00;;;;;;;;;;5076968;28;20442;-65
2021/09/16 00:26:26;;;;;;;12.50;10.63;;;;;;;;;;5079067;28;20507;-66
2021/09/16 00:28:53;;;;;;;14.77;11.10;;;;;;;;;;5078181;28;20942;-65
2021/09/16 00:31:20;;;;;;;16.17;10.07;;;;;;;;;;5078058;28;20459;-66
2021/09/16 00:33:48;;;;;;;13.67;9.63;;;;;;;;;;5077938;28;20481;-66
2021/09/16 00:36:15;;;;;;;15.50;9.50;;;;;;;;;;5077972;28;20454;-66
2021/09/16 00:38:43;;;;;;;11.53;9.30;;;;;;;;;;5077526;28;21003;-65
2021/09/16 00:41:11;;;;;;;9.33;7.40;;;;;;;;;;5077346;28;20974;-67
2021/09/16 00:43:38;;;;;;;10.63;7.47;;;;;;;;;;5078411;28;20446;-66
2021/09/16 00:46:06;;;;;;;9.80;6.90;;;;;;;;;;5078395;28;20454;-65
2021/09/16 00:48:33;;;;;;;13.20;7.17;;;;;;;;;;5078228;28;20453;-66
2021/09/16 00:51:00;;;;;;;10.13;7.43;;;;;;;;;;5076635;28;21039;-66
2021/09/16 00:53:28;;;;;;;9.57;6.67;;;;;;;;;;5077052;28;20527;-66
2021/09/16 00:55:57;;;;;;;7.50;6.40;;;;;;;;;;5077016;28;20450;-66
2021/09/16 00:58:25;;;;;;;8.20;6.60;;;;;;;;;;5076712;28;20458;-66
2021/09/16 01:00:55;;;;;;;7.33;5.80;;;;;;;;;;5076519;28;20446;-67
2021/09/16 01:03:22;;;;;;;11.27;6.80;;;;;;;;;;5076204;28;20451;-66
2021/09/16 01:05:50;;;;;;;7.63;5.87;;;;;;;;;;5076560;28;20536;-66
2021/09/16 01:08:17;;;;;;;7.57;6.37;;;;;;;;;;5076354;28;20452;-66
2021/09/16 01:10:44;;;;;;;7.27;6.50;;;;;;;;;;5076325;28;20516;-66
2021/09/16 01:13:14;;;;;;;7.80;6.40;;;;;;;;;;5075979;28;21074;-66
2021/09/16 01:15:41;;;;;;;12.47;5.97;;;;;;;;;;5076279;28;20458;-65
2021/09/16 01:18:08;;;;;;;7.57;5.43;;;;;;;;;;5076359;28;20454;-66
2021/09/16 01:20:36;;;;;;;9.10;6.80;;;;;;;;;;5076067;28;20446;-68
2021/09/16 01:23:04;;;;;;;7.60;6.30;;;;;;;;;;5076471;28;20452;-66
2021/09/16 01:25:33;;;;;;;8.43;6.73;;;;;;;;;;5076318;28;20443;-66
2021/09/16 01:28:01;;;;;;;8.57;5.67;;;;;;;;;;5076359;28;20449;-66
2021/09/16 01:30:28;;;;;;;8.37;6.37;;;;;;;;;;5076270;28;20453;-66
2021/09/16 01:32:57;;;;;;;5.70;5.10;;;;;;;;;;5076001;28;20470;-66
2021/09/16 01:35:24;;;;;;;8.80;5.20;;;;;;;;;;5075157;28;20508;-66
2021/09/16 01:37:52;;;;;;;6.00;4.43;;;;;;;;;;5075979;28;20442;-66
2021/09/16 01:40:20;;;;;;;5.50;4.27;;;;;;;;;;5075609;28;20504;-66
2021/09/16 01:42:48;;;;;;;6.23;4.50;;;;;;;;;;5075458;28;20973;-66
2021/09/16 01:45:16;;;;;;;5.13;3.37;;;;;;;;;;5075378;28;20877;-66
2021/09/16 01:47:44;;;;;;;5.30;3.43;;;;;;;;;;5075693;28;20441;-66
2021/09/16 01:50:12;;;;;;;4.27;3.40;;;;;;;;;;5075573;28;20867;-66
2021/09/16 01:52:39;;;;;;;3.20;2.57;;;;;;;;;;5075354;28;20473;-66
2021/09/16 01:55:07;;;;;;;4.80;3.00;;;;;;;;;;5075465;28;20531;-66
2021/09/16 01:57:36;;;;;;;3.20;2.03;;;;;;;;;;5075521;28;20445;-66
2021/09/16 02:00:04;;;;;;;4.23;2.83;;;;;;;;;;5075146;28;20453;-67
2021/09/16 02:02:31;;;;;;;3.07;2.40;;;;;;;;;;5075379;28;20520;-66
2021/09/16 02:04:59;;;;;;;4.10;2.53;;;;;;;;;;5075058;28;20933;-66
2021/09/16 02:07:26;;;;;;;3.93;2.50;;;;;;;;;;5075302;28;20498;-66
2021/09/16 02:09:53;;;;;;;5.73;2.90;;;;;;;;;;5075521;28;20453;-66
2021/09/16 02:12:20;;;;;;;4.97;2.50;;;;;;;;;;5076255;28;20468;-67
2021/09/16 02:14:49;;;;;;;2.00;1.80;;;;;;;;;;5076628;28;20523;-66
2021/09/16 02:17:17;;;;;;;3.33;1.80;;;;;;;;;;5075253;28;20491;-66
2021/09/16 02:19:44;;;;;;;4.07;1.97;;;;;;;;;;5074817;28;20449;-66
2021/09/16 02:22:11;;;;;;;4.20;1.70;;;;;;;;;;5074984;28;20538;-66
2021/09/16 02:24:38;;;;;;;3.03;1.90;;;;;;;;;;5074692;28;20546;-66
2021/09/16 02:27:06;;;;;;;2.13;1.50;;;;;;;;;;5074649;28;20454;-66
2021/09/16 02:29:33;;;;;;;3.47;1.90;;;;;;;;;;5074954;28;20533;-67
2021/09/16 02:32:02;;;;;;;3.80;1.80;;;;;;;;;;5074866;28;20838;-66
2021/09/16 02:34:29;;;;;;;3.73;1.93;;;;;;;;;;5075131;28;20477;-66
2021/09/16 02:36:56;;;;;;;3.60;1.50;;;;;;;;;;5075460;28;20503;-66
2021/09/16 02:39:23;;;;;;;3.93;1.60;;;;;;;;;;5075069;28;20453;-67
2021/09/16 02:41:51;;;;;;;3.97;1.80;;;;;;;;;;5074311;28;20884;-66
2021/09/16 02:44:18;;;;;;;3.13;1.57;;;;;;;;;;5074698;28;20487;-66
2021/09/16 02:46:45;;;;;;;3.17;1.70;;;;;;;;;;5073884;28;20499;-66
2021/09/16 02:49:14;;;;;;;6.10;1.70;;;;;;;;;;5074288;28;20510;-66
2021/09/16 02:51:41;;;;;;;2.30;1.37;;;;;;;;;;5074198;28;20472;-66
2021/09/16 02:54:09;;;;;;;5.33;1.77;;;;;;;;;;5074165;28;20481;-66
2021/09/16 02:56:36;;;;;;;4.43;1.63;;;;;;;;;;5074393;28;20992;-66
2021/09/16 02:59:03;;;;;;;3.37;1.73;;;;;;;;;;5074629;28;20507;-66
2021/09/16 03:01:31;;;;;;;4.83;1.77;;;;;;;;;;5074351;28;20882;-65
2021/09/16 03:03:58;;;;;;;10.53;1.87;;;;;;;;;;5073953;28;20450;-65
2021/09/16 03:06:26;;;;;;;3.33;1.70;;;;;;;;;;5074248;28;20441;-66
2021/09/16 03:08:54;;;;;;;1.70;1.10;;;;;;;;;;5074211;28;20442;-66
2021/09/16 03:11:21;;;;;;;2.70;1.20;;;;;;;;;;5074018;28;20881;-67
2021/09/16 03:13:48;;;;;;;3.23;1.43;;;;;;;;;;5074007;28;20473;-66
2021/09/16 03:16:15;;;;;;;3.20;1.37;;;;;;;;;;5073669;28;20784;-66
2021/09/16 03:18:42;;;;;;;7.57;1.20;;;;;;;;;;5074116;28;20444;-66
2021/09/16 03:21:10;;;;;;;3.30;1.50;;;;;;;;;;5073932;28;20461;-66
2021/09/16 03:23:38;;;;;;;1.60;1.30;;;;;;;;;;5073568;28;20457;-66
2021/09/16 03:26:06;;;;;;;4.70;1.20;;;;;;;;;;5073444;28;20450;-66
2021/09/16 03:28:34;;;;;;;2.07;1.63;;;;;;;;;;5073759;28;20449;-66
2021/09/16 03:31:01;;;;;;;2.70;1.20;;;;;;;;;;5073640;28;20469;-66
2021/09/16 03:33:42;;;;;;;2.53;1.10;;;;;;;;;;5073639;28;21049;-66
2021/09/16 03:36:09;;;;;;;5.83;1.10;;;;;;;;;;5073715;28;20449;-66
2021/09/16 03:38:38;;;;;;;2.07;1.43;;;;;;;;;;5073846;28;20499;-66
2021/09/16 03:41:05;;;;;;;3.17;1.30;;;;;;;;;;5073494;28;20522;-67
2021/09/16 03:43:33;;;;;;;3.47;1.20;;;;;;;;;;5073822;28;20446;-66
2021/09/16 03:46:00;;;;;;;3.30;1.33;;;;;;;;;;5074309;28;20495;-66
2021/09/16 03:48:27;;;;;;;4.17;1.07;;;;;;;;;;5073870;28;20495;-66
2021/09/16 03:50:54;;;;;;;3.43;0.97;;;;;;;;;;5073213;28;20496;-66
2021/09/16 03:53:22;;;;;;;2.53;1.03;;;;;;;;;;5073235;28;20421;-66
2021/09/16 03:55:50;;;;;;;3.30;0.80;;;;;;;;;;5073344;28;20565;-66
2021/09/16 03:58:17;;;;;;;4.83;1.23;;;;;;;;;;5073068;28;20499;-66
2021/09/16 04:00:45;;;;;;;3.60;0.97;;;;;;;;;;5073234;28;20450;-66
2021/09/16 04:03:12;;;;;;;2.97;1.03;;;;;;;;;;5073245;28;20504;-66
2021/09/16 04:08:37;;;;;;;2.17;0.90;;;;;;;;;;5091483;27;20552;-66
2021/09/16 04:11:04;;;;;;;1.70;0.67;;;;;;;;;;5090956;28;20472;-67
2021/09/16 04:13:31;;;;;;;1.83;0.90;;;;;;;;;;5091029;28;20441;-66
2021/09/16 04:15:58;;;;;;;1.97;0.93;;;;;;;;;;5091635;28;20521;-66
2021/09/16 04:18:25;;;;;;;2.50;0.60;;;;;;;;;;5090570;28;21001;-66
2021/09/16 04:20:53;;;;;;;1.80;0.80;;;;;;;;;;5090592;28;20460;-66
2021/09/16 04:23:20;;;;;;;1.33;0.70;;;;;;;;;;5090831;28;20498;-64
2021/09/16 04:25:49;;;;;;;1.47;0.70;;;;;;;;;;5090672;28;20497;-66
2021/09/16 04:28:16;;;;;;;2.10;0.73;;;;;;;;;;5090644;28;20485;-65
2021/09/16 04:30:43;;;;;;;2.13;0.70;;;;;;;;;;5090783;28;20461;-65
2021/09/16 04:33:10;;;;;;;2.87;1.00;;;;;;;;;;5090433;28;20999;-65
2021/09/16 04:35:37;;;;;;;1.73;1.00;;;;;;;;;;5090116;28;20860;-64
2021/09/16 04:38:05;;;;;;;4.30;1.13;;;;;;;;;;5091042;28;20494;-64
2021/09/16 04:40:32;;;;;;;1.60;0.77;;;;;;;;;;5090689;28;20452;-64
2021/09/16 04:43:01;;;;;;;2.20;0.90;;;;;;;;;;5090471;28;20464;-64
2021/09/16 04:45:28;;;;;;;1.60;1.03;;;;;;;;;;5090655;28;20521;-65
2021/09/16 04:47:55;;;;;;;4.63;0.90;;;;;;;;;;5091292;28;20575;-64
2021/09/16 04:50:23;;;;;;;2.30;1.03;;;;;;;;;;5092559;28;20457;-65
2021/09/16 04:52:50;;;;;;;1.37;0.80;;;;;;;;;;5083486;22;20856;-60
2021/09/16 04:55:17;;;;;;;3.53;1.20;;;;;;;;;;5049410;28;20478;-61
2021/09/16 04:57:44;;;;;;;2.50;1.30;;;;;;;;;;5049716;28;20443;-60
2021/09/16 05:00:14;;;;;;;3.53;0.93;;;;;;;;;;5049724;28;20520;-60
2021/09/16 05:02:41;;;;;;;4.17;1.10;;;;;;;;;;5049349;28;20978;-60
2021/09/16 05:05:09;;;;;;;3.10;1.30;;;;;;;;;;5049845;28;20451;-60
2021/09/16 05:07:36;;;;;;;1.27;0.90;;;;;;;;;;5049462;28;21072;-60
2021/09/16 05:10:04;;;;;;;3.37;1.13;;;;;;;;;;5049367;28;20446;-60
2021/09/16 05:12:31;;;;;;;5.23;1.23;;;;;;;;;;5049233;28;20473;-60
2021/09/16 05:14:58;;;;;;;2.80;1.23;;;;;;;;;;5049553;28;20466;-61
2021/09/16 05:17:27;;;;;;;4.77;1.30;;;;;;;;;;5049449;28;20542;-60
2021/09/16 05:19:54;;;;;;;4.50;1.20;;;;;;;;;;5036322;28;20478;-61
2021/09/16 05:22:21;;;;;;;3.13;1.00;;;;;;;;;;5036045;28;20471;-60
2021/09/16 05:24:49;;;;;;;2.20;0.90;;;;;;;;;;5035654;28;21002;-60
2021/09/16 05:27:19;;;;;;;1.53;1.00;;;;;;;;;;5035781;28;20529;-60
2021/09/16 05:29:46;;;;;;;2.87;1.10;;;;;;;;;;5035287;28;20506;-60
2021/09/16 05:32:13;;;;;;;4.47;1.20;;;;;;;;;;5035599;28;20536;-60
2021/09/16 05:34:42;;;;;;;1.70;1.30;;;;;;;;;;5035729;28;20518;-60
2021/09/16 05:37:09;;;;;;;2.33;1.10;;;;;;;;;;5035568;28;20440;-60
2021/09/16 05:39:37;;;;;;;2.50;1.13;;;;;;;;;;5035671;28;20451;-60
2021/09/16 05:42:05;;;;;;;7.00;0.93;;;;;;;;;;5035494;28;20467;-60
2021/09/16 05:44:32;;;;;;;2.63;1.20;;;;;;;;;;5036339;28;20452;-60
2021/09/16 05:46:59;;;;;;;1.30;1.03;;;;;;;;;;5036471;28;20483;-60
2021/09/16 05:49:26;;;;;;;2.73;1.33;;;;;;;;;;5036613;28;20801;-61
2021/09/16 05:51:55;;;;;;;3.23;1.10;;;;;;;;;;5036042;28;20503;-59
2021/09/16 05:54:23;;;;;;;5.50;1.63;;;;;;;;;;5035870;28;20616;-60
2021/09/16 05:56:50;;;;;;;1.60;1.13;;;;;;;;;;5035095;28;20447;-62
2021/09/16 05:59:18;;;;;;;4.43;1.40;;;;;;;;;;5035410;28;20520;-62
2021/09/16 06:01:45;;;;;;;1.93;1.13;;;;;;;;;;5034760;28;20475;-60
2021/09/16 06:04:12;;;;;;;3.43;1.27;;;;;;;;;;5034712;28;20576;-60
2021/09/16 06:06:39;;;;;;;4.50;1.57;;;;;;;;;;5034715;28;20459;-60
2021/09/16 06:09:08;;;;;;;5.70;1.40;;;;;;;;;;5034948;28;20535;-60
2021/09/16 06:11:35;;;;;;;2.60;0.90;;;;;;;;;;5034991;28;20455;-59
2021/09/16 06:14:03;;;;;;;2.97;1.30;;;;;;;;;;5034574;28;20911;-64
2021/09/16 06:16:30;;;;;;;3.90;1.30;;;;;;;;;;5035021;28;20444;-62
2021/09/16 06:18:57;;;;;;;6.67;1.30;;;;;;;;;;5034898;28;20525;-59
2021/09/16 06:21:24;;;;;;;2.30;1.50;;;;;;;;;;5034459;28;20444;-61
2021/09/16 06:23:51;;;;;;;5.53;1.40;;;;;;;;;;5034584;28;20455;-61
2021/09/16 06:26:21;;;;;;;5.57;1.73;;;;;;;;;;5034453;28;20514;-60
2021/09/16 06:28:48;;;;;;;2.00;1.20;;;;;;;;;;5034319;28;20486;-61
2021/09/16 06:31:16;;;;;;;2.93;1.03;;;;;;;;;;5033621;28;20536;-60
2021/09/16 06:33:43;;;;;;;2.07;1.53;;;;;;;;;;5034266;28;20498;-60
2021/09/16 06:36:10;;;;;;;2.97;1.33;;;;;;;;;;5034259;28;20863;-60
2021/09/16 06:38:38;;;;;;;1.50;1.00;;;;;;;;;;5034037;28;20444;-61
2021/09/16 06:41:05;;;;;;;4.67;1.20;;;;;;;;;;5034309;28;20451;-60
2021/09/16 06:43:34;;;;;;;5.03;1.10;;;;;;;;;;5033978;28;20838;-60
2021/09/16 06:46:01;;;;;;;3.13;1.30;;;;;;;;;;5034255;28;20522;-58
2021/09/16 06:48:28;;;;;;;6.63;1.77;;;;;;;;;;5033254;28;20488;-59
2021/09/16 06:50:56;;;;;;;1.97;1.40;;;;;;;;;;5034267;28;20448;-59
2021/09/16 06:53:23;;;;;;;4.23;1.50;;;;;;;;;;5033894;28;20484;-59
2021/09/16 06:55:50;;;;;;;4.43;1.57;;;;;;;;;;5033795;28;20448;-61
2021/09/16 06:58:18;;;;;;;3.63;1.57;;;;;;;;;;5033824;28;20505;-60
2021/09/16 07:00:47;;;;;;;3.23;1.30;;;;;;;;;;5033448;28;20449;-59
2021/09/16 07:03:14;;;;;;;4.00;1.80;;;;;;;;;;5033469;28;20526;-60
2021/09/16 07:05:41;;;;;;;3.70;1.47;;;;;;;;;;5033717;28;20495;-60
2021/09/16 07:08:09;;;;;;;4.90;1.57;;;;;;;;;;5034391;28;20491;-60
2021/09/16 07:10:36;;;;;;;4.00;1.80;;;;;;;;;;5033551;28;20474;-60
2021/09/16 07:13:03;;;;;;;2.33;1.13;;;;;;;;;;5033452;28;20462;-60
2021/09/16 07:15:31;;;;;;;4.20;1.40;;;;;;;;;;5033750;28;20456;-60
2021/09/16 07:17:59;;;;;;;2.17;1.40;;;;;;;;;;5033736;28;20504;-61
2021/09/16 07:20:27;;;;;;;3.70;1.60;;;;;;;;;;5033696;28;20444;-62
2021/09/16 07:22:54;;;;;;;2.10;1.50;;;;;;;;;;5033747;28;20925;-60
2021/09/16 07:25:21;;;;;;;2.70;1.47;;;;;;;;;;5033564;28;20460;-61
2021/09/16 07:27:48;;;;;;;2.00;1.17;;;;;;;;;;5033165;28;20484;-60
2021/09/16 07:30:16;;;;;;;6.40;1.30;;;;;;;;;;5033552;28;20457;-61
2021/09/16 07:32:44;;;;;;;1.90;1.30;;;;;;;;;;5033175;28;20523;-60
2021/09/16 07:35:13;;;;;;;4.07;1.20;;;;;;;;;;5033486;28;20446;-60
2021/09/16 07:37:40;;;;;;;2.77;1.40;;;;;;;;;;5033493;28;20441;-59
2021/09/16 07:40:08;;;;;;;3.93;1.60;;;;;;;;;;5033193;28;21003;-60
2021/09/16 07:42:35;;;;;;;5.37;1.80;;;;;;;;;;5032698;28;20476;-60
2021/09/16 07:45:02;;;;;;;2.63;1.30;;;;;;;;;;5033186;28;20942;-60
2021/09/16 07:47:30;;;;;;;5.07;2.00;;;;;;;;;;5033549;28;20453;-60
2021/09/16 07:49:57;;;;;;;6.60;1.53;;;;;;;;;;5033431;28;20864;-60
2021/09/16 07:52:26;;;;;;;3.17;1.40;;;;;;;;;;5033809;28;20584;-62
2021/09/16 07:54:53;;;;;;;5.10;1.87;;;;;;;;;;5033090;28;20519;-59
2021/09/16 07:57:20;;;;;;;6.43;1.83;;;;;;;;;;5032891;28;20494;-60
2021/09/16 07:59:47;;;;;;;8.13;2.00;;;;;;;;;;5033054;28;20846;-58
2021/09/16 08:02:15;;;;;;;2.33;1.27;;;;;;;;;;5032848;28;20473;-60
2021/09/16 08:04:42;;;;;;;3.73;1.30;;;;;;;;;;5033143;28;20514;-59
2021/09/16 08:07:09;;;;;;;3.67;1.40;;;;;;;;;;5032820;28;20963;-62
2021/09/16 08:09:38;;;;;;;5.23;1.90;;;;;;;;;;5033045;28;20474;-60
2021/09/16 08:12:05;;;;;;;4.70;1.93;;;;;;;;;;5032816;28;20470;-60
2021/09/16 08:14:33;;;;;;;2.30;1.50;;;;;;;;;;5033181;28;20451;-60
2021/09/16 08:17:00;;;;;;;3.17;2.00;;;;;;;;;;5033046;28;20452;-62
2021/09/16 08:19:27;;;;;;;3.93;1.83;;;;;;;;;;5033095;28;20448;-61
2021/09/16 08:21:55;;;;;;;3.23;1.77;;;;;;;;;;5033081;28;20480;-64
2021/09/16 08:24:22;;;;;;;7.20;3.00;;;;;;;;;;5032749;28;20944;-62
2021/09/16 08:26:51;;;;;;;4.90;2.27;;;;;;;;;;5032850;28;20937;-62
2021/09/16 08:29:18;;;;;;;3.57;1.60;;;;;;;;;;5032557;28;20479;-61
2021/09/16 08:31:46;;;;;;;3.30;1.73;;;;;;;;;;5032602;28;20464;-60
2021/09/16 08:34:13;;;;;;;7.17;1.93;;;;;;;;;;5032647;28;20452;-60
2021/09/16 08:36:41;;;;;;;6.90;2.23;;;;;;;;;;5032595;28;20452;-60
2021/09/16 08:39:09;;;;;;;2.90;1.90;;;;;;;;;;5032876;28;20502;-59
2021/09/16 08:41:37;;;;;;;4.20;2.17;;;;;;;;;;5032983;28;20456;-60
2021/09/16 08:44:06;;;;;;;2.63;1.70;;;;;;;;;;5032507;28;20512;-59
2021/09/16 08:46:34;;;;;;;4.03;1.67;;;;;;;;;;5032880;28;20501;-60
2021/09/16 08:49:01;;;;;;;2.07;1.80;;;;;;;;;;5032494;28;20477;-59
2021/09/16 08:51:29;;;;;;;2.07;1.70;;;;;;;;;;5032477;28;20861;-60
2021/09/16 08:53:56;;;;;;;2.27;1.90;;;;;;;;;;5033504;28;20459;-60
2021/09/16 08:56:23;;;;;;;1.97;1.70;;;;;;;;;;5036411;28;20534;-60
2021/09/16 08:58:51;;;;;;;4.70;1.73;;;;;;;;;;5036113;28;20908;-61
2021/09/16 09:01:20;;;;;;;1.77;1.67;;;;;;;;;;5036005;28;20966;-61
2021/09/16 09:03:47;;;;;;;5.33;2.40;;;;;;;;;;5036344;28;20506;-59
2021/09/16 09:06:28;;;;;;;2.90;1.80;;;;;;;;;;5035755;28;20998;-58
2021/09/16 09:09:08;;;;;;;2.10;1.63;;;;;;;;;;5036436;28;20495;-60
2021/09/16 09:11:49;;;;;;;5.40;2.47;;;;;;;;;;5035893;28;20937;-59
2021/09/16 09:14:17;;;;;;;5.17;2.50;;;;;;;;;;5036493;28;20494;-63
2021/09/16 09:16:46;;;;;;;2.67;2.43;;;;;;;;;;5036130;28;20445;-61
2021/09/16 09:19:17;;;;;;;4.77;2.30;;;;;;;;;;5036086;28;20529;-62
2021/09/16 09:21:45;;;;;;;6.00;2.53;;;;;;;;;;5036259;28;20479;-61
2021/09/16 09:24:12;;;;;;;5.00;2.37;;;;;;;;;;5036176;28;20443;-61
2021/09/16 09:26:40;;;;;;;5.07;2.97;;;;;;;;;;5035718;28;20459;-64
2021/09/16 09:29:14;;;;;;;5.50;2.70;;;;;;;;;;5035858;28;20476;-62
2021/09/16 09:31:43;;;;;;;3.90;3.20;;;;;;;;;;5035433;28;20468;-64
2021/09/16 09:34:24;;;;;;;6.63;3.00;;;;;;;;;;5035370;28;20507;-64
2021/09/16 09:36:51;;;;;;;4.60;2.90;;;;;;;;;;5035236;28;20503;-63
2021/09/16 09:39:25;;;;;;;3.60;3.30;;;;;;;;;;5035627;28;20444;-65
2021/09/16 09:41:53;;;;;;;3.60;2.77;;;;;;;;;;5035348;28;21057;-63
2021/09/16 09:44:20;;;;;;;7.80;3.37;;;;;;;;;;5035355;28;20796;-62
2021/09/16 09:46:49;;;;;;;5.53;3.33;;;;;;;;;;5036150;28;20856;-58
2021/09/16 09:49:18;;;;;;;4.50;3.17;;;;;;;;;;5035220;28;20539;-62
2021/09/16 09:51:48;;;;;;;3.70;3.40;;;;;;;;;;5035084;28;20477;-62
2021/09/16 09:54:17;;;;;;;6.60;3.73;;;;;;;;;;5035055;28;20440;-64
2021/09/16 09:56:58;;;;;;;6.23;3.60;;;;;;;;;;5035338;28;20505;-61
2021/09/16 09:59:25;;;;;;;3.23;2.80;;;;;;;;;;5034963;28;20516;-63
2021/09/16 10:01:54;;;;;;;4.77;3.33;;;;;;;;;;5034628;28;20525;-62
2021/09/16 10:04:25;;;;;;;5.00;2.97;;;;;;;;;;5034534;28;20495;-61
2021/09/16 10:06:54;;;;;;;5.50;3.60;;;;;;;;;;5034737;28;20478;-61
2021/09/16 10:09:21;;;;;;;8.27;3.50;;;;;;;;;;5034938;28;20481;-63
2021/09/16 10:11:49;;;;;;;4.40;2.87;;;;;;;;;;5035228;28;20467;-62
2021/09/16 10:14:17;;;;;;;6.07;2.90;;;;;;;;;;5034629;28;20446;-62
2021/09/16 10:16:44;;;;;;;5.60;3.63;;;;;;;;;;5034866;28;20453;-61
2021/09/16 10:19:12;;;;;;;6.30;4.07;;;;;;;;;;5034514;28;20500;-64
2021/09/16 10:21:40;;;;;;;4.97;3.80;;;;;;;;;;5034540;28;20503;-64
2021/09/16 10:24:09;;;;;;;3.63;3.10;;;;;;;;;;5034615;28;20451;-63
2021/09/16 10:26:37;;;;;;;4.50;3.50;;;;;;;;;;5034213;28;20511;-64
2021/09/16 10:29:04;;;;;;;6.97;3.20;;;;;;;;;;5034288;28;20604;-62
2021/09/16 10:31:32;;;;;;;5.80;3.30;;;;;;;;;;5034801;28;20450;-63
2021/09/16 10:33:59;;;;;;;5.30;3.03;;;;;;;;;;5034446;28;20871;-61
2021/09/16 10:36:27;;;;;;;4.03;2.57;;;;;;;;;;5034604;28;20524;-61
2021/09/16 10:38:56;;;;;;;5.03;3.43;;;;;;;;;;5034035;28;20581;-61
2021/09/16 10:41:28;;;;;;;5.10;2.80;;;;;;;;;;5034325;28;20460;-62
2021/09/16 10:44:14;;;;;;;5.60;3.10;;;;;;;;;;5034251;28;20438;-63
2021/09/16 10:46:42;;;;;;;4.67;2.67;;;;;;;;;;5034485;28;20451;-62
2021/09/16 10:49:28;;;;;;;5.03;3.07;;;;;;;;;;5034465;28;20490;-62
2021/09/16 10:51:56;;;;;;;7.50;3.40;;;;;;;;;;5083999;22;20489;-64
2021/09/16 10:54:34;;;;;;;6.13;3.40;;;;;;;;;;5034530;28;20848;-67
2021/09/16 10:57:03;;;;;;;7.03;4.10;;;;;;;;;;5034412;28;20496;-67
2021/09/16 10:59:49;;;;;;;6.40;4.57;;;;;;;;;;5034256;28;20446;-66
2021/09/16 11:02:17;;;;;;;5.23;3.40;;;;;;;;;;5034302;28;20565;-68
2021/09/16 11:05:05;;;;;;;6.77;3.87;;;;;;;;;;5034004;28;20521;-65
2021/09/16 11:07:52;;;;;;;5.37;3.83;;;;;;;;;;5033804;28;20446;-64
2021/09/16 11:10:43;;;;;;;4.80;4.40;;;;;;;;;;5034319;28;20510;-67
2021/09/16 11:13:25;;;;;;;4.70;3.30;;;;;;;;;;5019240;28;20529;-66
2021/09/16 11:15:54;;;;;;;6.77;3.17;;;;;;;;;;5033016;28;20498;-66
2021/09/16 11:18:22;;;;;;;6.40;4.73;;;;;;;;;;5033244;28;20448;-65
2021/09/16 11:20:50;;;;;;;6.50;3.47;;;;;;;;;;5033926;28;20481;-67
2021/09/16 11:23:18;;;;;;;6.77;4.20;;;;;;;;;;5033240;28;20467;-66
2021/09/16 11:25:46;;;;;;;4.90;3.63;;;;;;;;;;5033702;28;20470;-65
2021/09/16 11:28:14;;;;;;;6.93;4.30;;;;;;;;;;5033996;28;20457;-66
2021/09/16 11:30:43;;;;;;;4.40;3.17;;;;;;;;;;5033514;28;20479;-67
2021/09/16 11:33:12;;;;;;;6.77;3.90;;;;;;;;;;5033400;28;20466;-66
2021/09/16 11:35:39;;;;;;;3.67;3.00;;;;;;;;;;5033721;28;20458;-64
2021/09/16 11:38:08;;;;;;;4.87;3.50;;;;;;;;;;5033361;28;20939;-64
2021/09/16 11:40:36;;;;;;;5.47;3.33;;;;;;;;;;5033428;28;21004;-65
2021/09/16 11:43:05;;;;;;;14.40;3.70;;;;;;;;;;5033466;28;20513;-63
2021/09/16 11:45:32;;;;;;;3.50;2.77;;;;;;;;;;5032872;28;20457;-65
2021/09/16 11:48:01;;;;;;;3.87;3.10;;;;;;;;;;5033047;28;20453;-65
2021/09/16 11:50:33;;;;;;;5.50;3.70;;;;;;;;;;5033675;28;21004;-65
2021/09/16 11:53:01;;;;;;;6.63;3.47;;;;;;;;;;5033080;28;20519;-66
2021/09/16 11:55:29;;;;;;;4.33;3.13;;;;;;;;;;5033252;28;20449;-65
2021/09/16 11:58:01;;;;;;;10.70;3.97;;;;;;;;;;5033433;28;20462;-68
2021/09/16 12:00:29;;;;;;;5.37;3.43;;;;;;;;;;5032848;28;20446;-65
2021/09/16 12:02:57;;;;;;;4.03;3.00;;;;;;;;;;5033015;28;20527;-67
2021/09/16 12:05:39;;;;;;;3.63;2.90;;;;;;;;;;5032810;28;21004;-65
2021/09/16 12:08:07;;;;;;;4.50;3.07;;;;;;;;;;5032883;28;20504;-66
2021/09/16 12:10:39;;;;;;;4.23;2.73;;;;;;;;;;5032879;28;20482;-67
2021/09/16 12:13:07;;;;;;;6.00;3.17;;;;;;;;;;5032378;28;20896;-63
2021/09/16 12:15:36;;;;;;;5.20;2.97;;;;;;;;;;5032671;28;20454;-63
2021/09/16 12:18:03;;;;;;;4.20;3.30;;;;;;;;;;5032848;28;20449;-62
2021/09/16 12:20:30;;;;;;;4.77;3.27;;;;;;;;;;5032859;28;20565;-63
2021/09/16 12:22:59;;;;;;;6.17;3.47;;;;;;;;;;5032483;28;20470;-63
2021/09/16 12:25:26;;;;;;;7.43;2.60;;;;;;;;;;5033115;28;20450;-64
2021/09/16 12:28:07;;;;;;;5.57;3.20;;;;;;;;;;5032428;28;20888;-64
2021/09/16 12:30:38;;;;;;;5.73;3.10;;;;;;;;;;5038987;28;20466;-64
2021/09/16 12:33:20;;;;;;;5.77;3.00;;;;;;;;;;5037325;28;20463;-63
2021/09/16 12:35:47;;;;;;;5.00;2.70;;;;;;;;;;5036613;28;20790;-63
2021/09/16 12:38:16;;;;;;;6.53;3.13;;;;;;;;;;5037150;28;20962;-64
2021/09/16 12:40:43;;;;;;;4.00;2.80;;;;;;;;;;5037235;28;20881;-64
2021/09/16 12:43:11;;;;;;;6.07;3.50;;;;;;;;;;5036489;28;20461;-64
2021/09/16 12:45:38;;;;;;;7.80;3.57;;;;;;;;;;5036368;28;20863;-64
2021/09/16 12:48:21;;;;;;;3.77;2.97;;;;;;;;;;5036521;28;20439;-64
2021/09/16 12:50:49;;;;;;;3.80;3.20;;;;;;;;;;5036272;28;20478;-64
2021/09/16 12:53:17;;;;;;;6.17;3.53;;;;;;;;;;5036236;28;20524;-62
2021/09/16 12:55:44;;;;;;;4.00;3.10;;;;;;;;;;5036691;28;20493;-63
2021/09/16 12:58:12;;;;;;;5.10;3.20;;;;;;;;;;5035777;28;21011;-64
2021/09/16 13:00:40;;;;;;;4.20;3.13;;;;;;;;;;5036293;28;20442;-65
2021/09/16 13:03:17;;;;;;;5.83;3.60;;;;;;;;;;5036379;28;20503;-64
2021/09/16 13:05:45;;;;;;;7.90;2.97;;;;;;;;;;5036078;28;20524;-65
2021/09/16 13:08:14;;;;;;;4.67;3.60;;;;;;;;;;5036301;28;20450;-67
2021/09/16 13:10:45;;;;;;;5.30;3.50;;;;;;;;;;5035818;28;20531;-69
2021/09/16 13:13:13;;;;;;;5.23;3.20;;;;;;;;;;5036514;28;20982;-63
2021/09/16 13:15:43;;;;;;;4.93;2.57;;;;;;;;;;5035936;28;20537;-65
2021/09/16 13:18:11;;;;;;;7.47;3.37;;;;;;;;;;5037156;28;20430;-68
2021/09/16 13:20:39;;;;;;;3.90;2.43;;;;;;;;;;5036023;28;20504;-66
2021/09/16 13:23:08;;;;;;;4.87;3.13;;;;;;;;;;5035703;28;21009;-65
2021/09/16 13:25:35;;;;;;;2.60;2.37;;;;;;;;;;5036140;28;20447;-67
2021/09/16 13:28:04;;;;;;;6.43;2.83;;;;;;;;;;5035806;28;20497;-65
2021/09/16 13:30:31;;;;;;;5.57;2.80;;;;;;;;;;5035661;28;20479;-66
2021/09/16 13:32:58;;;;;;;3.23;2.87;;;;;;;;;;5036254;28;20476;-67
2021/09/16 13:35:26;;;;;;;4.17;3.10;;;;;;;;;;5035522;28;20510;-65
2021/09/16 13:37:53;;;;;;;4.40;3.00;;;;;;;;;;5035696;28;20556;-65
2021/09/16 13:40:20;;;;;;;3.87;3.40;;;;;;;;;;5035173;28;20448;-67
2021/09/16 13:42:48;;;;;;;4.43;3.00;;;;;;;;;;5035414;28;20463;-65
2021/09/16 13:45:18;;;;;;;5.03;3.30;;;;;;;;;;5035218;28;20521;-66
2021/09/16 13:47:45;;;;;;;4.53;2.63;;;;;;;;;;5035364;28;20843;-65
2021/09/16 13:50:13;;;;;;;4.27;2.87;;;;;;;;;;5035374;28;20995;-65
2021/09/16 13:52:40;;;;;;;5.50;3.67;;;;;;;;;;5035023;28;20487;-66
2021/09/16 13:55:08;;;;;;;3.73;2.70;;;;;;;;;;5035214;28;20456;-66
2021/09/16 13:57:35;;;;;;;3.97;3.03;;;;;;;;;;5035330;28;20841;-65
2021/09/16 14:00:02;;;;;;;6.87;3.53;;;;;;;;;;5035265;28;20506;-66
2021/09/16 14:02:31;;;;;;;4.93;3.40;;;;;;;;;;5035468;28;20466;-66
2021/09/16 14:04:58;;;;;;;3.43;2.83;;;;;;;;;;5035732;28;20997;-63
2021/09/16 14:07:25;;;;;;;6.07;4.00;;;;;;;;;;5036252;28;20455;-66
2021/09/16 14:09:52;;;;;;;3.47;2.53;;;;;;;;;;5036437;28;20541;-65
2021/09/16 14:12:20;;;;;;;3.83;3.00;;;;;;;;;;5035654;28;20819;-65
2021/09/16 14:14:47;;;;;;;5.77;2.90;;;;;;;;;;5035423;28;20451;-65
2021/09/16 14:17:14;;;;;;;7.73;3.07;;;;;;;;;;5035151;28;20501;-64
2021/09/16 14:19:43;;;;;;;6.00;3.43;;;;;;;;;;5036217;28;20516;-67
2021/09/16 14:22:10;;;;;;;5.33;3.03;;;;;;;;;;5035503;28;20526;-67
2021/09/16 14:24:37;;;;;;;6.50;3.57;;;;;;;;;;5034899;28;20451;-67
2021/09/16 14:27:05;;;;;;;3.73;2.80;;;;;;;;;;5034525;28;20448;-67
2021/09/16 14:29:32;;;;;;;5.00;3.40;;;;;;;;;;5034637;28;20442;-65
2021/09/16 14:31:59;;;;;;;5.17;3.30;;;;;;;;;;5034390;28;20963;-66
2021/09/16 14:34:26;;;;;;;3.37;3.07;;;;;;;;;;5034729;28;20449;-61
2021/09/16 14:36:55;;;;;;;5.93;3.70;;;;;;;;;;5034792;28;20503;-64
2021/09/16 14:39:22;;;;;;;5.70;3.40;;;;;;;;;;5034525;28;20449;-64
2021/09/16 14:41:50;;;;;;;5.07;4.57;;;;;;;;;;5033904;28;20934;-62
2021/09/16 14:44:17;;;;;;;4.70;3.93;;;;;;;;;;5034110;28;20449;-61
2021/09/16 14:46:44;;;;;;;5.50;3.90;;;;;;;;;;5033980;28;20936;-62
2021/09/16 14:49:12;;;;;;;3.77;3.40;;;;;;;;;;5034348;28;20448;-62
2021/09/16 14:51:39;;;;;;;5.57;4.10;;;;;;;;;;5032672;28;20547;-63